Aviation Digital Data Service (ADDS)

Output produced by METARs form (1603 UTC 26 September 2021)
found at http://www.aviationweather.gov/metar/data/
 
METAR text: KLMO 261555Z AUTO 00000KT 7SM CLR 23/01 A3007 RMK AO2 T02330005
Conditions at: KLMO (LONGMONT/VBRAND , CO, US) observed 1555 UTC 26 September 2021
Temperature: 23.3°C (74°F)
Dewpoint: 0.5°C (33°F) [RH = 22%]
Pressure (altimeter): 30.07 inches Hg (1018.4 mb)
Winds: calm
Visibility: 7 miles (11 km)
Ceiling: at least 12,000 feet AGL
Clouds: sky clear below 12,000 feet AGL
Weather: automated observation with no human augmentation;
there may or may not be significant weather present at this time

METAR text: KLMO 261535Z AUTO 00000KT 5SM HZ CLR 22/00 A3007 RMK AO2 T02210001
Conditions at: KLMO (LONGMONT/VBRAND , CO, US) observed 1535 UTC 26 September 2021
Temperature: 22.1°C (72°F)
Dewpoint: 0.1°C (32°F) [RH = 23%]
Pressure (altimeter): 30.07 inches Hg (1018.4 mb)
Winds: calm
Visibility: 5 miles ( 8 km)
Ceiling: at least 12,000 feet AGL
Clouds: sky clear below 12,000 feet AGL
Weather: HZ  (haze)

METAR text: KLMO 261515Z AUTO 00000KT 7SM CLR 20/02 A3007 RMK AO2 T02020017
Conditions at: KLMO (LONGMONT/VBRAND , CO, US) observed 1515 UTC 26 September 2021
Temperature: 20.2°C (68°F)
Dewpoint: 1.7°C (35°F) [RH = 29%]
Pressure (altimeter): 30.07 inches Hg (1018.4 mb)
Winds: calm
Visibility: 7 miles (11 km)
Ceiling: at least 12,000 feet AGL
Clouds: sky clear below 12,000 feet AGL
Weather: automated observation with no human augmentation;
there may or may not be significant weather present at this time